Latest Weather Observations for Esperance Airport

IDW60801

Issued at 6:02 pm WST Friday 29 April 2016 (issued every 30 minutes, with the page automatically refreshed every 10 minutes)

About weather observations | Map of weather stations | Latest weather observations for WA | Other Formats
Station Details ID: 009542 Name: ESPERANCE AERO Lat: -33.68 Lon: 121.83 Height: 142.0 m
Data from the previous 72 hours. | See also: Recent months at Esperance Airport
Date/Time
WST
Temp
°C
App
Temp
°C
Dew
Point
Rel
Hum
%
Delta-T
°C
Wind Press
QNH
hPa
Press
MSL
hPa
Rain
since 9 am
mm
Dir
 
Spd
km/h
Gust
km/h
Spd
kts
Gust
kts
29/06:00pm 17.3 13.0 10.7 65 3.6 NW 24 32 13 17 1009.0 1008.7 0.0
29/05:30pm 17.8 13.0 10.4 62 4.0 WNW 26 33 14 18 1009.0 1008.7 0.0
29/05:00pm 18.3 13.1 10.4 60 4.3 WNW 28 41 15 22 1009.2 1008.8 0.0
29/04:30pm 18.6 12.1 10.2 58 4.5 WNW 35 46 19 25 1009.2 1008.8 0.0
29/04:15pm 19.2 13.1 9.9 55 5.0 WNW 32 50 17 27 1009.3 1008.9 0.0
29/04:00pm 19.2 12.6 9.9 55 5.0 WNW 35 50 19 27 1009.4 1009.0 0.0
29/03:30pm 18.8 12.1 9.8 56 4.8 NW 35 48 19 26 1009.7 1009.3 0.0
29/03:00pm 18.3 11.8 10.2 59 4.4 WNW 35 50 19 27 1009.8 1009.4 0.0
29/02:30pm 18.8 11.2 10.4 58 4.5 WNW 41 52 22 28 1009.8 1009.4 0.0
29/02:15pm 18.7 11.7 10.0 57 4.7 WNW 37 56 20 30 1009.7 1009.3 0.0
29/02:00pm 18.8 11.7 9.6 55 4.9 WNW 37 50 20 27 1009.8 1009.4 0.0
29/01:30pm 18.3 10.4 9.4 56 4.7 WNW 41 56 22 30 1009.8 1009.4 0.0
29/01:00pm 18.0 10.5 9.4 57 4.5 WNW 39 50 21 27 1010.0 1009.6 0.0
29/12:30pm 18.2 10.8 9.8 58 4.5 WNW 39 50 21 27 1010.1 1009.7 0.0
29/12:00pm 18.7 11.7 10.0 57 4.7 WNW 37 52 20 28 1010.4 1010.0 0.0
29/11:30am 18.6 11.5 10.9 61 4.2 WNW 39 54 21 29 1010.8 1010.4 0.0
29/11:00am 17.7 9.7 9.1 57 4.5 WNW 41 57 22 31 1011.1 1010.7 0.0
29/10:54am 17.7 10.1 9.1 57 4.5 WNW 39 57 21 31 1011.3 1010.9 0.0
29/10:30am 17.4 10.8 10.1 62 3.9 WNW 35 46 19 25 1011.6 1011.2 0.0
29/10:00am 16.4 10.2 9.3 63 3.7 WNW 32 43 17 23 1011.9 1011.5 0.0
29/09:30am 15.3 8.4 9.0 66 3.2 WNW 35 48 19 26 1012.2 1011.8 0.0
29/09:00am 14.4 7.9 9.0 70 2.8 WNW 33 43 18 23 1012.3 1012.0 7.2
29/08:30am 13.2 7.3 9.1 76 2.1 WNW 30 37 16 20 1012.5 1012.2 7.2
29/08:00am 12.0 6.0 8.5 79 1.7 WNW 30 37 16 20 1012.6 1012.3 7.2
29/07:30am 11.4 6.5 8.3 81 1.5 NW 24 33 13 18 1012.5 1012.2 7.2
29/07:00am 10.4 6.1 8.0 85 1.2 NW 20 26 11 14 1012.3 1012.0 7.2
29/06:30am 10.0 5.3 7.8 86 1.1 NW 22 28 12 15 1012.5 1012.2 7.2
29/06:00am 10.1 5.8 7.9 86 1.1 NW 20 28 11 15 1012.3 1012.0 7.2
29/05:30am 10.1 6.0 8.0 87 1.0 NW 19 26 10 14 1012.2 1011.8 7.2
29/05:00am 10.2 5.6 8.1 87 1.0 NW 22 28 12 15 1012.3 1012.0 7.2
29/04:30am 10.3 5.7 8.2 87 1.0 WNW 22 28 12 15 1012.3 1012.0 7.2
29/04:00am 10.5 6.0 8.4 87 1.0 NW 22 30 12 16 1012.3 1012.0 7.2
29/03:30am 10.5 6.4 8.6 88 0.9 WNW 20 28 11 15 1012.4 1012.1 7.2
29/03:00am 10.6 6.1 8.7 88 0.9 WNW 22 26 12 14 1012.3 1012.0 7.2
29/02:30am 10.8 6.3 8.7 87 1.0 NW 22 28 12 15 1012.4 1012.1 7.2
29/02:00am 10.7 6.3 8.8 88 0.9 WNW 22 28 12 15 1012.6 1012.3 7.2
29/01:30am 10.7 6.8 8.6 87 1.0 WNW 19 24 10 13 1012.4 1012.1 7.2
29/01:00am 10.9 6.8 8.8 87 1.0 WNW 20 26 11 14 1012.2 1011.8 7.2
29/12:30am 11.1 7.3 9.2 88 1.0 WNW 19 24 10 13 1012.0 1011.6 7.2
29/12:00am 11.3 7.4 9.4 88 1.0 WNW 20 26 11 14 1011.8 1011.4 7.2
 
Date/Time
WST
Temp
°C
App
Temp
°C
Dew
Point
Rel
Hum
%
Delta-T
°C
Wind Press
QNH
hPa
Press
MSL
hPa
Rain
since 9 am
mm
Dir
 
Spd
km/h
Gust
km/h
Spd
kts
Gust
kts
28/11:30pm 11.6 7.9 10.0 90 0.8 NW 20 24 11 13 1012.0 1011.6 7.2
28/11:00pm 11.8 8.2 10.5 92 0.7 WNW 20 24 11 13 1012.2 1011.8 7.2
28/10:30pm 12.0 8.7 10.9 93 0.6 WNW 19 22 10 12 1012.3 1012.0 7.2
28/10:00pm 12.2 9.3 11.1 93 0.6 WNW 17 22 9 12 1012.5 1012.2 7.2
28/09:41pm 12.2 8.8 11.1 93 0.6 W 20 30 11 16 1012.7 1012.4 6.8
28/09:30pm 12.4 8.6 11.3 93 0.6 W 22 32 12 17 1012.8 1012.5 6.8
28/09:17pm 12.4 9.2 11.3 93 0.6 WNW 19 28 10 15 1012.9 1012.6 6.4
28/09:00pm 12.2 9.3 11.1 93 0.6 WNW 17 20 9 11 1012.3 1012.0 5.6
28/08:30pm 12.2 9.7 11.1 93 0.6 NW 15 19 8 10 1012.4 1012.1 5.6
28/08:00pm 12.5 10.1 11.4 93 0.6 WNW 15 20 8 11 1012.3 1012.0 5.6
28/07:30pm 12.6 9.8 11.5 93 0.6 WNW 17 22 9 12 1012.0 1011.6 5.6
28/07:00pm 12.8 9.7 11.7 93 0.6 WNW 19 26 10 14 1012.1 1011.7 5.4
28/06:30pm 12.5 9.1 11.2 92 0.7 W 20 28 11 15 1011.8 1011.4 5.4
28/06:00pm 12.8 9.1 11.4 91 0.7 WNW 22 30 12 16 1010.8 1010.4 5.4
28/05:39pm 12.9 8.1 11.5 91 0.7 W 28 35 15 19 1010.7 1010.3 5.4
28/05:33pm 12.9 7.2 11.3 90 0.9 W 32 41 17 22 1010.7 1010.3 5.2
28/05:30pm 13.0 7.2 11.4 90 0.9 WSW 33 43 18 23 1010.7 1010.3 5.2
28/05:14pm 13.8 10.8 12.7 93 0.6 WSW 20 30 11 16 1010.5 1010.1 4.8
28/05:07pm 13.7 8.8 12.6 93 0.6 W 30 41 16 22 1010.3 1009.9 4.4
28/05:00pm 13.6 8.2 12.3 92 0.7 W 32 46 17 25 1010.0 1009.6 4.2
28/04:59pm 13.6 8.2 12.3 92 0.7 W 32 46 17 25 1010.0 1009.6 4.2
28/04:49pm 13.9 8.8 13.0 94 0.5 W 32 50 17 27 1009.8 1009.4 4.2
28/04:31pm 13.9 8.7 12.8 93 0.6 W 32 41 17 22 1010.1 1009.7 1.8
28/04:30pm 13.9 8.6 12.6 92 0.7 W 32 41 17 22 1010.0 1009.6 1.2
28/04:18pm 13.8 7.9 12.5 92 0.7 W 35 46 19 25 1009.2 1008.8 0.8
28/04:01pm 13.8 4.2 12.2 90 0.9 WSW 54 78 29 42 1009.2 1008.8 0.4
28/04:00pm 13.9 4.7 12.3 90 0.9 W 52 78 28 42 1009.2 1008.8 0.4
28/03:57pm 14.2 4.6 12.2 88 1.1 W 54 78 29 42 1009.0 1008.7 0.2
28/03:56pm 14.8 5.2 12.1 84 1.5 WNW 54 78 29 42 1009.0 1008.7 0.2
28/03:40pm 18.6 9.7 9.1 54 5.0 WNW 46 70 25 38 1007.6 1007.3 0.0
28/03:30pm 17.8 9.2 10.2 61 4.1 WNW 46 59 25 32 1007.5 1007.2 0.0
28/03:09pm 19.7 10.9 8.1 47 6.0 WNW 44 65 24 35 1007.2 1006.9 0.0
28/03:00pm 19.8 11.0 8.2 47 6.1 WNW 44 57 24 31 1007.2 1006.9 0.0
28/02:30pm 19.7 11.0 7.8 46 6.2 NW 43 59 23 32 1007.1 1006.8 0.0
28/02:00pm 20.4 11.1 7.7 44 6.6 NW 46 61 25 33 1007.2 1006.9 0.0
28/01:48pm 20.7 11.9 7.3 42 6.9 NW 43 61 23 33 1007.1 1006.8 0.0
28/01:30pm 20.4 11.1 7.4 43 6.7 NW 46 57 25 31 1007.4 1007.1 0.0
28/01:02pm 20.3 11.3 7.3 43 6.7 NW 44 63 24 34 1007.6 1007.3 0.0
28/01:00pm 20.2 11.3 7.6 44 6.5 NW 44 61 24 33 1007.6 1007.3 0.0
28/12:37pm 19.8 10.9 7.5 45 6.3 WNW 44 63 24 34 1008.4 1008.1 0.0
28/12:30pm 19.6 10.3 7.4 45 6.3 WNW 46 63 25 34 1008.7 1008.4 0.0
28/12:00pm 18.9 9.8 7.0 46 6.0 NW 44 59 24 32 1009.5 1009.1 0.0
28/11:30am 19.0 9.9 6.8 45 6.2 WNW 44 59 24 32 1010.2 1009.8 0.0
28/11:00am 18.5 9.9 6.7 46 5.9 WNW 41 61 22 33 1010.6 1010.2 0.0
28/10:30am 17.3 9.7 7.6 53 4.9 NW 37 50 20 27 1011.1 1010.7 0.0
28/10:00am 17.1 10.3 7.5 53 4.9 NW 33 44 18 24 1011.9 1011.5 0.0
28/09:30am 16.3 9.9 8.5 60 4.0 NW 32 43 17 23 1012.5 1012.2 0.0
28/09:00am 14.9 8.8 8.2 64 3.4 NW 30 39 16 21 1012.7 1012.4 0.0
28/08:30am 13.9 8.1 8.1 68 2.9 NW 28 41 15 22 1013.2 1012.9 0.0
28/08:00am 12.8 7.3 7.7 71 2.5 NW 26 33 14 18 1013.3 1013.0 0.0
28/07:30am 11.4 6.6 7.5 77 1.9 NW 22 30 12 16 1013.2 1012.9 0.0
28/07:00am 10.3 5.8 7.0 80 1.6 NW 20 26 11 14 1013.2 1012.9 0.0
28/06:30am 10.1 5.6 6.8 80 1.6 NW 20 26 11 14 1013.2 1012.9 0.0
28/06:00am 10.4 5.9 6.9 79 1.7 NW 20 28 11 15 1013.4 1013.1 0.0
28/05:30am 10.5 6.2 6.8 78 1.8 NW 19 24 10 13 1013.3 1013.0 0.0
28/05:00am 11.5 7.2 7.2 75 2.1 NW 19 26 10 14 1013.6 1013.3 0.0
28/04:30am 11.4 7.5 7.3 76 2.0 NW 17 24 9 13 1013.4 1013.1 0.0
28/04:00am 11.2 7.3 7.3 77 1.9 NW 17 20 9 11 1013.4 1013.1 0.0
28/03:30am 11.1 7.6 7.2 77 1.9 NW 15 19 8 10 1013.6 1013.3 0.0
28/03:00am 11.4 8.3 7.1 75 2.1 NW 13 20 7 11 1013.8 1013.5 0.0
28/02:30am 11.7 8.2 7.2 74 2.2 NW 15 19 8 10 1014.2 1013.9 0.0
28/02:00am 10.8 7.2 6.7 76 1.9 NNW 15 17 8 9 1014.2 1013.9 0.0
28/01:30am 11.1 7.6 7.0 76 2.0 NNW 15 19 8 10 1014.4 1014.1 0.0
28/01:00am 11.6 9.3 7.5 76 2.0 NW 9 13 5 7 1014.8 1014.5 0.0
28/12:30am 11.4 9.1 7.5 77 1.9 N 9 11 5 6 1014.9 1014.6 0.0
28/12:00am 11.6 8.6 7.9 78 1.8 N 13 17 7 9 1015.2 1014.9 0.0
 
Date/Time
WST
Temp
°C
App
Temp
°C
Dew
Point
Rel
Hum
%
Delta-T
°C
Wind Press
QNH
hPa
Press
MSL
hPa
Rain
since 9 am
mm
Dir
 
Spd
km/h
Gust
km/h
Spd
kts
Gust
kts
27/11:30pm 11.2 8.3 8.1 81 1.5 N 13 17 7 9 1015.3 1015.0 0.0
27/11:00pm 10.9 8.0 8.0 82 1.4 N 13 17 7 9 1015.7 1015.4 0.0
27/10:30pm 10.6 7.7 8.0 84 1.3 N 13 17 7 9 1015.9 1015.6 0.0
27/10:00pm 10.0 7.0 7.9 87 1.0 N 13 13 7 7 1016.1 1015.8 0.0
27/09:30pm 9.1 6.3 6.9 86 1.0 N 11 13 6 7 1016.3 1016.0 0.0
27/09:00pm 10.2 7.9 7.6 84 1.3 N 9 13 5 7 1016.2 1015.9 0.0
27/08:30pm 10.5 8.3 7.9 84 1.3 N 9 11 5 6 1016.3 1016.0 0.0
27/08:00pm 9.3 6.8 6.7 84 1.2 NNW 9 9 5 5 1016.5 1016.1 0.0
27/07:30pm 10.1 8.1 7.3 83 1.3 NNW 7 7 4 4 1016.3 1016.0 0.0
27/07:00pm 10.5 8.7 7.0 79 1.7 NW 6 7 3 4 1016.1 1015.8 0.0
27/06:30pm 12.2 11.6 7.5 73 2.3 CALM 0 0 0 0 1015.9 1015.6 0.0
27/06:00pm 11.7 11.1 7.6 76 2.0 CALM 0 0 0 0 1015.6 1015.3 0.0
27/05:30pm 12.5 10.6 7.6 72 2.4 WSW 7 9 4 5 1015.5 1015.2 0.0
27/05:00pm 13.4 10.8 7.6 68 2.9 SW 11 15 6 8 1015.4 1015.1 0.0
27/04:30pm 14.6 10.3 7.2 61 3.7 SW 19 26 10 14 1015.3 1015.0 0.0
27/04:00pm 15.4 10.6 7.2 58 4.1 SW 22 30 12 16 1015.3 1015.0 0.0
27/03:30pm 15.3 10.1 7.3 59 4.0 SW 24 33 13 18 1015.1 1014.8 0.0
27/03:00pm 15.9 11.1 7.4 57 4.3 SW 22 32 12 17 1015.0 1014.7 0.0
27/02:30pm 15.3 9.6 6.8 57 4.2 SW 26 33 14 18 1015.0 1014.7 0.0
27/02:00pm 17.1 11.7 6.3 49 5.3 WSW 24 37 13 20 1014.9 1014.6 0.0
27/01:30pm 15.6 9.6 5.5 51 4.9 WSW 26 32 14 17 1014.9 1014.6 0.0
27/01:00pm 16.2 9.6 6.1 51 4.9 W 30 37 16 20 1014.8 1014.5 0.0
27/12:30pm 16.5 9.8 5.5 48 5.3 W 30 43 16 23 1015.0 1014.7 0.0
27/12:00pm 16.8 10.3 6.3 50 5.2 W 30 41 16 22 1015.2 1014.9 0.0
27/11:30am 16.1 9.6 6.3 52 4.8 W 30 39 16 21 1015.4 1015.1 0.0
27/11:00am 15.9 9.0 6.3 53 4.7 W 32 41 17 22 1015.6 1015.3 0.0
27/10:30am 15.4 8.4 6.7 56 4.3 W 33 43 18 23 1015.9 1015.6 0.0
27/10:00am 15.0 8.7 7.5 61 3.7 W 30 39 16 21 1015.9 1015.6 0.0
27/09:30am 14.2 8.0 7.7 65 3.2 WNW 30 39 16 21 1015.9 1015.6 0.0
27/09:00am 13.4 7.6 7.8 69 2.8 W 28 39 15 21 1015.7 1015.4 8.8
27/08:30am 12.4 7.4 7.9 74 2.2 WNW 24 32 13 17 1015.6 1015.3 8.8
27/08:00am 11.0 5.8 7.3 78 1.8 WNW 24 30 13 16 1015.5 1015.2 8.8
27/07:30am 9.7 5.2 7.1 84 1.2 WNW 20 26 11 14 1015.1 1014.8 8.8
27/07:00am 8.7 4.1 6.7 87 0.9 WNW 20 26 11 14 1015.0 1014.7 8.8
27/06:30am 8.4 3.8 6.5 88 0.9 WNW 20 26 11 14 1014.6 1014.3 8.8
27/06:00am 8.3 3.7 6.6 89 0.8 WNW 20 24 11 13 1014.3 1014.0 8.8
27/05:30am 8.6 4.2 6.7 88 0.9 WNW 19 24 10 13 1014.2 1013.9 8.8
27/05:00am 8.7 4.2 6.8 88 0.9 WNW 20 24 11 13 1014.1 1013.8 8.8
27/04:30am 9.2 4.8 7.2 87 0.9 WNW 20 26 11 14 1014.0 1013.7 8.8
27/04:00am 9.6 5.2 7.5 87 1.0 NW 20 32 11 17 1013.7 1013.4 8.8
27/03:30am 9.7 5.6 8.5 92 0.6 WNW 20 24 11 13 1013.7 1013.4 8.8
27/03:03am 9.6 6.0 8.5 93 0.5 NW 17 24 9 13 1013.5 1013.2 8.8
27/03:00am 9.7 5.8 8.6 93 0.5 NW 19 24 10 13 1013.5 1013.2 8.8
27/02:34am 10.1 5.2 8.4 89 0.8 W 24 35 13 19 1013.7 1013.4 8.6
27/02:30am 10.2 5.6 8.1 87 1.0 W 22 30 12 16 1013.6 1013.3 8.6
27/02:00am 10.0 6.0 8.1 88 0.9 WNW 19 22 10 12 1013.0 1012.7 8.6
27/01:30am 9.8 5.5 7.9 88 0.9 WNW 20 28 11 15 1013.0 1012.7 8.6
27/01:00am 9.8 5.8 8.1 89 0.8 WNW 19 24 10 13 1012.6 1012.3 8.6
27/12:30am 10.2 6.5 8.1 87 1.0 WNW 17 24 9 13 1012.5 1012.2 8.6
27/12:00am 10.2 6.2 8.3 88 0.9 WNW 19 24 10 13 1012.5 1012.2 8.6
 
Date/Time
WST
Temp
°C
App
Temp
°C
Dew
Point
Rel
Hum
%
Delta-T
°C
Wind Press
QNH
hPa
Press
MSL
hPa
Rain
since 9 am
mm
Dir
 
Spd
km/h
Gust
km/h
Spd
kts
Gust
kts
26/11:30pm 10.3 7.0 8.2 87 1.0 WNW 15 19 8 10 1012.3 1012.0 8.6
26/11:00pm 11.2 7.7 8.6 84 1.3 WNW 17 24 9 13 1012.4 1012.1 8.6
26/10:30pm 11.3 7.6 9.4 88 1.0 W 19 22 10 12 1012.4 1012.1 8.6
26/10:00pm 11.5 6.8 9.4 87 1.1 W 24 35 13 19 1012.4 1012.1 8.4
26/09:30pm 11.7 8.7 9.3 85 1.2 WNW 15 20 8 11 1012.1 1011.7 8.4
26/09:00pm 12.5 8.8 10.0 85 1.3 WSW 20 28 11 15 1011.9 1011.5 8.4
26/08:30pm 12.5 8.8 10.2 86 1.2 W 20 24 11 13 1011.5 1011.1 8.4
26/08:00pm 12.6 8.1 10.1 85 1.3 W 24 35 13 19 1011.1 1010.7 8.4
26/07:30pm 13.2 8.7 10.2 82 1.6 W 24 32 13 17 1010.6 1010.2 8.4
26/07:00pm 13.5 9.2 10.7 83 1.5 W 24 35 13 19 1010.3 1009.9 8.4
26/06:30pm 14.0 9.7 10.8 81 1.7 W 24 30 13 16 1009.5 1009.1 8.4

Other Formats:

Comma delimited format used in spreadsheet applications
http://www.bom.gov.au/fwo/IDW60801/IDW60801.95638.axf

JavaScript Object Notation format (JSON) in row-major order
http://www.bom.gov.au/fwo/IDW60801/IDW60801.95638.json